createdAt,value
2022-11-29T00:01:57.119Z,98851.44
2022-11-29T00:04:26.028Z,98850.88
2022-11-29T00:06:55.000Z,98854.43
2022-11-29T00:09:23.638Z,98853.39
2022-11-29T00:12:11.258Z,98854.79
2022-11-29T00:14:41.231Z,98856.37
2022-11-29T00:17:09.979Z,98860.04
2022-11-29T00:19:38.966Z,98859.77
2022-11-29T00:22:07.905Z,98856.40
2022-11-29T00:24:37.072Z,98861.74
2022-11-29T00:27:05.753Z,98855.77
2022-11-29T00:29:35.084Z,98858.83
2022-11-29T00:32:04.190Z,98855.33
2022-11-29T00:34:33.253Z,98853.39
2022-11-29T00:37:02.201Z,98857.46
2022-11-29T00:39:31.302Z,98857.65
2022-11-29T00:42:00.197Z,98859.06
2022-11-29T00:44:29.461Z,98855.73
2022-11-29T00:46:58.231Z,98853.20
2022-11-29T00:49:27.075Z,98849.97
2022-11-29T00:51:55.693Z,98853.02
2022-11-29T00:54:25.252Z,98848.85
2022-11-29T00:56:54.150Z,98848.98
2022-11-29T00:59:22.742Z,98847.56
2022-11-29T01:01:51.757Z,98847.04
2022-11-29T01:04:21.168Z,98852.55
2022-11-29T01:06:53.627Z,98851.57
2022-11-29T01:09:23.198Z,98848.91
2022-11-29T01:11:51.863Z,98848.29
2022-11-29T01:14:20.467Z,98850.16
2022-11-29T01:16:49.803Z,98852.16
2022-11-29T01:19:18.417Z,98856.24
2022-11-29T01:21:47.010Z,98848.45
2022-11-29T01:24:16.619Z,98850.61
2022-11-29T01:26:45.268Z,98849.04
2022-11-29T01:29:13.970Z,98847.66
2022-11-29T01:31:43.702Z,98841.10
2022-11-29T01:34:12.472Z,98839.25
2022-11-29T01:36:41.077Z,98842.03
2022-11-29T01:39:11.103Z,98839.28
2022-11-29T01:41:39.937Z,98842.16
2022-11-29T01:44:14.987Z,98839.01
2022-11-29T01:46:46.086Z,98843.16
2022-11-29T01:49:39.936Z,98840.22
2022-11-29T01:52:14.225Z,98843.27
2022-11-29T01:54:47.676Z,98840.48
2022-11-29T01:57:18.731Z,98843.24
2022-11-29T01:59:51.486Z,98844.83
2022-11-29T02:02:35.889Z,98846.05
2022-11-29T02:05:05.760Z,98842.10
2022-11-29T02:07:34.927Z,98838.48
2022-11-29T02:10:04.895Z,98837.52
2022-11-29T02:12:36.720Z,98837.46
2022-11-29T02:15:11.099Z,98843.07
2022-11-29T02:17:45.816Z,98847.52
2022-11-29T02:20:33.012Z,98848.21
2022-11-29T02:23:32.622Z,98848.11
2022-11-29T02:26:16.629Z,98851.95
2022-11-29T02:29:07.526Z,98856.08
2022-11-29T02:32:07.222Z,98855.05
2022-11-29T02:34:58.838Z,98856.83
2022-11-29T02:37:36.825Z,98862.74
2022-11-29T02:40:14.250Z,98859.95
2022-11-29T02:43:13.479Z,98861.84
2022-11-29T02:46:01.074Z,98863.77
2022-11-29T02:49:01.154Z,98872.11
2022-11-29T02:51:46.237Z,98868.37
2022-11-29T02:54:37.037Z,98869.77
2022-11-29T02:57:26.832Z,98872.46
2022-11-29T02:59:55.820Z,98873.23
2022-11-29T03:02:49.913Z,98869.26
2022-11-29T03:05:19.558Z,98872.86
2022-11-29T03:08:11.121Z,98872.52
2022-11-29T03:11:03.826Z,98875.98
2022-11-29T03:13:38.920Z,98875.05
2022-11-29T03:16:23.097Z,98878.02
2022-11-29T03:19:20.115Z,98880.08
2022-11-29T03:22:13.263Z,98879.00
2022-11-29T03:24:56.463Z,98879.07
2022-11-29T03:27:41.539Z,98882.29
2022-11-29T03:30:14.570Z,98883.99
2022-11-29T03:32:55.632Z,98892.06
2022-11-29T03:36:02.232Z,98891.10
2022-11-29T03:38:41.472Z,98889.27
2022-11-29T03:41:38.611Z,98892.16
2022-11-29T03:44:16.393Z,98888.85
2022-11-29T03:46:53.494Z,98883.98
2022-11-29T03:49:46.061Z,98885.95
2022-11-29T03:52:34.699Z,98886.62
2022-11-29T03:55:20.627Z,98886.98
2022-11-29T03:58:12.218Z,98888.75
2022-11-29T04:01:09.655Z,98890.58
2022-11-29T04:04:16.359Z,98891.34
2022-11-29T04:07:01.356Z,98892.23
2022-11-29T04:10:09.775Z,98893.88
2022-11-29T04:13:17.878Z,98896.71
2022-11-29T04:16:14.506Z,98899.17
2022-11-29T04:19:08.623Z,98897.64
2022-11-29T04:21:49.318Z,98899.34
2022-11-29T04:24:43.503Z,98899.43
2022-11-29T04:27:31.512Z,98900.54
2022-11-29T04:30:25.584Z,98902.05
2022-11-29T04:33:16.361Z,98901.61
2022-11-29T04:35:54.279Z,98907.54
2022-11-29T04:38:31.076Z,98905.95
2022-11-29T04:42:08.030Z,98910.20
2022-11-29T04:44:48.796Z,98915.75
2022-11-29T04:47:31.944Z,98913.05
2022-11-29T04:50:45.771Z,98910.73
2022-11-29T04:53:33.724Z,98916.13
2022-11-29T04:56:25.953Z,98917.31
2022-11-29T04:59:10.029Z,98924.77
2022-11-29T05:01:47.942Z,98922.96
2022-11-29T05:04:16.879Z,98926.30
2022-11-29T05:07:09.698Z,98928.13
2022-11-29T05:09:56.344Z,98927.05
2022-11-29T05:12:43.399Z,98930.30
2022-11-29T05:15:53.497Z,98934.45
2022-11-29T05:19:03.999Z,98933.95
2022-11-29T05:21:48.259Z,98938.91
2022-11-29T05:24:28.550Z,98939.73
2022-11-29T05:27:12.878Z,98940.52
2022-11-29T05:30:00.169Z,98941.83
2022-11-29T05:33:07.799Z,98945.80
2022-11-29T05:36:08.556Z,98945.65
2022-11-29T05:39:11.732Z,98950.16
2022-11-29T05:41:52.986Z,98949.19
2022-11-29T05:44:37.572Z,98951.42
2022-11-29T05:47:10.638Z,98956.38
2022-11-29T05:50:07.230Z,98953.71
2022-11-29T05:52:58.399Z,98954.77
2022-11-29T05:55:55.983Z,98954.77
2022-11-29T05:58:50.974Z,98956.89
2022-11-29T06:01:28.864Z,98958.23
2022-11-29T06:04:09.120Z,98964.39
2022-11-29T06:06:55.699Z,98966.64
2022-11-29T06:09:31.433Z,98969.08
2022-11-29T06:12:24.474Z,98970.48
2022-11-29T06:15:02.555Z,98972.10
2022-11-29T06:17:38.855Z,98978.52
2022-11-29T06:20:41.553Z,98979.00
2022-11-29T06:23:31.518Z,98980.87
2022-11-29T06:26:04.982Z,98983.32
2022-11-29T06:29:20.555Z,98987.02
2022-11-29T06:31:58.068Z,98985.81
2022-11-29T06:34:47.597Z,98987.29
2022-11-29T06:37:37.944Z,98989.40
2022-11-29T06:40:11.100Z,98993.17
2022-11-29T06:42:39.930Z,98988.67
2022-11-29T06:45:14.155Z,98989.17
2022-11-29T06:48:03.298Z,98994.16
2022-11-29T06:50:47.945Z,99003.29
2022-11-29T06:53:51.250Z,99002.20
2022-11-29T06:56:29.306Z,99005.64
2022-11-29T06:59:25.952Z,99012.84
2022-11-29T07:01:59.975Z,99014.52
2022-11-29T07:04:49.671Z,99015.30
2022-11-29T07:07:22.049Z,99015.22
2022-11-29T07:09:54.699Z,99010.66
2022-11-29T07:12:24.767Z,99015.91
2022-11-29T07:14:53.664Z,99015.31
2022-11-29T07:18:00.334Z,99015.85
2022-11-29T07:20:59.617Z,99020.23
2022-11-29T07:23:35.432Z,99022.86
2022-11-29T07:26:32.142Z,99022.29
2022-11-29T07:29:20.895Z,99022.86
2022-11-29T07:32:03.548Z,99024.40
2022-11-29T07:34:49.304Z,99026.77
2022-11-29T07:37:30.841Z,99019.60
2022-11-29T07:40:05.752Z,99023.13
2022-11-29T07:42:50.040Z,99023.73
2022-11-29T07:45:28.548Z,99029.90
2022-11-29T07:47:57.917Z,99029.60
2022-11-29T07:50:28.197Z,99034.20
2022-11-29T07:52:58.445Z,99031.87
2022-11-29T07:55:27.553Z,99036.10
2022-11-29T07:58:09.109Z,99036.16
2022-11-29T08:01:01.350Z,99038.29
2022-11-29T08:03:51.755Z,99037.06
2022-11-29T08:06:41.622Z,99038.89
2022-11-29T08:09:40.331Z,99040.66
2022-11-29T08:12:30.263Z,99046.24
2022-11-29T08:15:22.153Z,99044.04
2022-11-29T08:21:28.940Z,99048.98
2022-11-29T08:24:24.861Z,99045.31
2022-11-29T08:27:19.340Z,99046.02
2022-11-29T08:30:24.216Z,99044.88
2022-11-29T08:33:22.028Z,99041.80
2022-11-29T08:36:25.614Z,99044.95
2022-11-29T08:39:13.782Z,99043.48
2022-11-29T08:42:01.313Z,99049.23
2022-11-29T08:44:40.323Z,99050.77
2022-11-29T08:47:38.896Z,99053.91
2022-11-29T08:50:25.453Z,99053.09
2022-11-29T08:53:17.349Z,99058.11
2022-11-29T08:55:47.050Z,99060.27
2022-11-29T08:58:16.560Z,99062.85
2022-11-29T09:00:47.340Z,99059.44
2022-11-29T09:03:35.098Z,99059.01
2022-11-29T09:06:14.770Z,99059.63
2022-11-29T09:08:44.749Z,99068.86
2022-11-29T09:11:17.170Z,99069.92
2022-11-29T09:13:49.584Z,99076.62
2022-11-29T09:16:22.204Z,99076.09
2022-11-29T09:18:53.694Z,99082.47
2022-11-29T09:21:25.247Z,99081.79
2022-11-29T09:23:59.520Z,99082.92
2022-11-29T09:26:31.114Z,99084.47
2022-11-29T09:29:01.708Z,99088.12
2022-11-29T09:31:31.516Z,99089.08
2022-11-29T09:34:00.363Z,99089.11
2022-11-29T09:36:31.263Z,99090.82
2022-11-29T10:27:24.411Z,99095.11
2022-11-29T10:29:53.810Z,99098.96
2022-11-29T10:32:25.752Z,99102.11
2022-11-29T10:34:57.825Z,99100.05
2022-11-29T10:37:27.286Z,99102.21
2022-11-29T10:40:04.727Z,99098.77
2022-11-29T10:42:52.141Z,99098.88
2022-11-29T10:45:27.513Z,99095.56
2022-11-29T10:48:02.679Z,99090.66
2022-11-29T10:50:35.848Z,99086.81
2022-11-29T10:53:08.767Z,99086.51
2022-11-29T10:55:50.630Z,99089.33
2022-11-29T10:58:28.250Z,99091.77
2022-11-29T11:01:09.737Z,99091.15
2022-11-29T11:03:53.110Z,99089.98
2022-11-29T11:06:25.599Z,99088.84
2022-11-29T11:09:13.124Z,99090.98
2022-11-29T11:11:50.265Z,99092.79
2022-11-29T11:14:23.270Z,99093.05
2022-11-29T11:16:52.448Z,99087.13
2022-11-29T11:19:30.730Z,99084.45
2022-11-29T11:22:02.498Z,99083.65
2022-11-29T11:24:34.450Z,99084.91
2022-11-29T11:27:04.375Z,99088.41
2022-11-29T11:29:44.690Z,99088.17
2022-11-29T11:32:18.910Z,99088.99
2022-11-29T11:34:56.784Z,99094.05
2022-11-29T11:37:28.508Z,99092.44
2022-11-29T11:40:19.138Z,99097.05
2022-11-29T11:42:47.993Z,99097.38
2022-11-29T11:45:16.654Z,99097.50
2022-11-29T11:47:49.565Z,99098.37
2022-11-29T11:50:28.277Z,99096.55
2022-11-29T11:53:18.699Z,99097.02
2022-11-29T11:55:57.484Z,99103.80
2022-11-29T11:58:45.408Z,99105.67
2022-11-29T12:01:31.329Z,99116.77
2022-11-29T12:04:06.352Z,99114.95
2022-11-29T12:06:48.129Z,99117.43
2022-11-29T12:09:39.926Z,99118.71
2022-11-29T12:12:20.696Z,99121.27
2022-11-29T12:14:58.574Z,99125.20
2022-11-29T12:17:27.796Z,99126.63
2022-11-29T12:20:03.116Z,99126.25
2022-11-29T12:23:05.937Z,99125.93
2022-11-29T12:26:13.759Z,99126.62
2022-11-29T12:37:36.031Z,99128.42
2022-11-29T12:40:10.761Z,99125.07
2022-11-29T12:42:51.721Z,99127.16
2022-11-29T12:45:26.294Z,99128.05
2022-11-29T12:48:34.152Z,99132.70
2022-11-29T12:51:40.990Z,99136.99
2022-11-29T12:54:29.511Z,99136.61
2022-11-29T12:57:16.249Z,99136.20
2022-11-29T13:00:11.295Z,99134.80
2022-11-29T13:02:50.849Z,99139.06
2022-11-29T13:06:03.431Z,99142.59
2022-11-29T13:09:03.731Z,99142.90
2022-11-29T13:11:36.713Z,99145.14
2022-11-29T13:14:42.542Z,99146.34
2022-11-29T13:17:41.303Z,99148.75
2022-11-29T13:20:38.035Z,99148.50
2022-11-29T13:23:45.688Z,99148.70
2022-11-29T13:26:18.132Z,99152.69
2022-11-29T13:28:49.147Z,99150.67
2022-11-29T13:31:21.172Z,99155.98
2022-11-29T13:33:50.498Z,99161.20
2022-11-29T13:36:33.307Z,99157.70
2022-11-29T13:39:28.937Z,99157.05
2022-11-29T13:41:57.807Z,99157.70
2022-11-29T13:44:40.865Z,99162.66
2022-11-29T13:47:12.569Z,99165.33
2022-11-29T13:49:55.429Z,99167.23
2022-11-29T13:52:30.658Z,99171.20
2022-11-29T13:55:28.858Z,99170.51
2022-11-29T13:58:18.145Z,99175.14
2022-11-29T14:00:52.456Z,99175.02
2022-11-29T14:03:24.566Z,99178.02
2022-11-29T14:06:04.420Z,99184.02
2022-11-29T14:09:17.778Z,99187.23
2022-11-29T14:12:01.869Z,99188.23
2022-11-29T14:14:42.247Z,99185.31
2022-11-29T14:17:49.516Z,99187.52
2022-11-29T14:20:23.951Z,99192.05
2022-11-29T14:23:05.129Z,99191.79
2022-11-29T14:25:57.795Z,99193.51
2022-11-29T14:28:35.704Z,99187.65
2022-11-29T14:31:10.039Z,99192.27
2022-11-29T14:33:56.388Z,99198.67
2022-11-29T14:37:10.548Z,99199.90
2022-11-29T14:39:48.572Z,99206.42
2022-11-29T14:42:21.932Z,99201.66
2022-11-29T14:44:58.735Z,99205.15
2022-11-29T14:47:32.277Z,99207.23
2022-11-29T14:50:05.818Z,99211.67
2022-11-29T14:52:39.881Z,99211.19
2022-11-29T14:55:29.226Z,99211.74
2022-11-29T14:57:57.823Z,99214.23
2022-11-29T15:00:47.809Z,99214.34
2022-11-29T15:03:17.389Z,99218.31
2022-11-29T15:05:57.871Z,99219.63
2022-11-29T15:08:35.472Z,99217.48
2022-11-29T15:11:33.422Z,99223.67
2022-11-29T15:14:29.369Z,99227.27
2022-11-29T15:17:32.857Z,99226.40
2022-11-29T15:20:26.859Z,99227.83
2022-11-29T15:23:00.005Z,99234.50
2022-11-29T15:26:04.158Z,99234.95
2022-11-29T15:28:33.214Z,99234.43
2022-11-29T15:31:12.054Z,99231.45
2022-11-29T15:33:44.407Z,99238.19
2022-11-29T15:36:24.753Z,99240.22
2022-11-29T15:38:57.092Z,99237.23
2022-11-29T15:41:35.850Z,99241.80
2022-11-29T15:44:07.280Z,99241.85
2022-11-29T15:46:36.767Z,99243.94
2022-11-29T15:49:24.701Z,99247.12
2022-11-29T15:52:11.244Z,99250.26
2022-11-29T15:54:48.409Z,99250.69
2022-11-29T15:57:39.087Z,99249.65
2022-11-29T16:00:15.708Z,99246.48
2022-11-29T16:03:05.803Z,99249.66
2022-11-29T16:05:37.929Z,99249.69
2022-11-29T16:08:19.945Z,99250.61
2022-11-29T16:10:53.223Z,99248.58
2022-11-29T16:13:40.681Z,99248.62
2022-11-29T16:16:22.309Z,99251.81
2022-11-29T16:18:51.860Z,99252.51
2022-11-29T16:21:32.090Z,99256.45
2022-11-29T16:24:10.786Z,99256.37
2022-11-29T16:26:43.863Z,99260.70
2022-11-29T16:29:32.096Z,99263.10
2022-11-29T16:32:15.334Z,99261.48
2022-11-29T16:34:45.501Z,99259.45
2022-11-29T16:37:22.598Z,99260.89
2022-11-29T16:39:57.120Z,99260.67
2022-11-29T16:42:30.847Z,99264.09
2022-11-29T16:45:07.659Z,99263.55
2022-11-29T16:48:01.869Z,99265.68
2022-11-29T16:50:34.044Z,99267.43
2022-11-29T16:53:36.162Z,99267.98
2022-11-29T16:56:06.051Z,99271.10
2022-11-29T16:58:40.149Z,99275.88
2022-11-29T17:01:19.653Z,99278.39
2022-11-29T17:03:48.752Z,99280.67
2022-11-29T17:06:21.887Z,99283.96
2022-11-29T17:08:56.703Z,99287.48
2022-11-29T17:11:26.474Z,99283.80
2022-11-29T17:13:56.539Z,99286.88
2022-11-29T17:16:25.415Z,99290.95
2022-11-29T17:18:54.243Z,99293.65
2022-11-29T17:21:27.805Z,99298.32
2022-11-29T17:23:57.232Z,99297.89
2022-11-29T17:26:31.040Z,99293.71
2022-11-29T17:29:00.183Z,99295.48
2022-11-29T17:31:29.970Z,99296.61
2022-11-29T17:34:02.499Z,99294.50
2022-11-29T17:36:31.741Z,99297.99
2022-11-29T17:39:01.067Z,99304.20
2022-11-29T17:41:29.932Z,99308.77
2022-11-29T17:43:59.615Z,99310.22
2022-11-29T17:46:31.148Z,99314.20
2022-11-29T17:49:01.940Z,99311.53
2022-11-29T17:54:23.775Z,99315.91
2022-11-29T17:56:52.582Z,99313.31
2022-11-29T17:59:21.238Z,99317.02
2022-11-29T18:01:50.225Z,99315.70
2022-11-29T18:04:39.295Z,99318.87
2022-11-29T18:07:28.405Z,99318.42
2022-11-29T18:10:22.344Z,99319.54
2022-11-29T18:13:14.490Z,99325.50
2022-11-29T18:16:21.010Z,99325.95
2022-11-29T18:19:26.078Z,99328.17
2022-11-29T18:22:16.166Z,99328.95
2022-11-29T18:25:38.040Z,99331.92
2022-11-29T18:28:31.631Z,99331.69
2022-11-29T18:31:28.959Z,99329.64
2022-11-29T18:34:23.276Z,99330.44
2022-11-29T18:37:28.273Z,99331.60
2022-11-29T18:40:33.176Z,99330.96
2022-11-29T18:43:29.751Z,99335.80
2022-11-29T18:45:59.426Z,99338.92
2022-11-29T18:48:34.369Z,99343.17
2022-11-29T18:51:05.610Z,99338.50
2022-11-29T18:53:35.603Z,99347.63
2022-11-29T18:56:14.184Z,99342.39
2022-11-29T18:58:47.650Z,99348.45
2022-11-29T19:01:18.895Z,99347.19
2022-11-29T19:03:53.252Z,99346.78
2022-11-29T19:06:24.959Z,99344.23
2022-11-29T19:08:53.955Z,99349.59
2022-11-29T19:11:24.306Z,99347.35
2022-11-29T19:14:02.298Z,99346.56
2022-11-29T19:16:33.882Z,99349.61
2022-11-29T19:19:02.998Z,99346.76
2022-11-29T19:21:34.768Z,99350.25
2022-11-29T19:24:08.284Z,99351.73
2022-11-29T19:26:37.408Z,99352.57
2022-11-29T19:29:06.047Z,99357.13
2022-11-29T19:31:34.736Z,99353.72
2022-11-29T19:34:03.864Z,99355.94
2022-11-29T19:36:33.422Z,99358.32
2022-11-29T19:39:03.046Z,99357.72
2022-11-29T19:41:34.352Z,99358.23
2022-11-29T19:44:08.433Z,99364.59
2022-11-29T19:46:40.698Z,99363.10
2022-11-29T19:49:10.251Z,99366.23
2022-11-29T19:51:39.852Z,99368.59
2022-11-29T19:54:10.542Z,99367.21
2022-11-29T19:56:39.660Z,99372.21
2022-11-29T19:59:09.284Z,99367.15
2022-11-29T20:01:42.305Z,99369.44
2022-11-29T20:04:17.087Z,99366.91
2022-11-29T20:06:48.173Z,99368.59
2022-11-29T20:09:18.186Z,99368.23
2022-11-29T20:11:46.745Z,99369.52
2022-11-29T20:14:15.573Z,99368.75
2022-11-29T20:16:45.105Z,99370.19
2022-11-29T20:19:16.523Z,99369.86
2022-11-29T20:21:49.365Z,99371.40
2022-11-29T20:24:19.814Z,99375.86
2022-11-29T20:26:49.417Z,99376.00
2022-11-29T20:29:19.810Z,99377.59
2022-11-29T20:31:51.007Z,99381.78
2022-11-29T20:34:21.330Z,99381.13
2022-11-29T20:37:02.402Z,99381.57
2022-11-29T20:39:43.022Z,99383.48
2022-11-29T20:42:41.719Z,99381.38
2022-11-29T20:45:14.663Z,99376.73
2022-11-29T20:48:17.471Z,99377.54
2022-11-29T20:50:59.844Z,99379.88
2022-11-29T20:53:33.667Z,99385.38
2022-11-29T20:56:04.207Z,99383.20
2022-11-29T20:58:33.334Z,99382.27
2022-11-29T21:01:02.872Z,99384.98
2022-11-29T21:03:32.290Z,99388.24
2022-11-29T21:06:05.649Z,99389.52
2022-11-29T21:08:35.193Z,99388.77
2022-11-29T21:11:07.847Z,99389.95
2022-11-29T21:13:38.006Z,99392.48
2022-11-29T21:16:07.357Z,99389.38
2022-11-29T21:18:36.296Z,99388.98
2022-11-29T21:21:17.072Z,99390.94
2022-11-29T21:24:01.325Z,99393.27
2022-11-29T21:26:42.189Z,99401.98
2022-11-29T21:29:18.119Z,99402.14
2022-11-29T21:31:49.317Z,99409.59
2022-11-29T21:34:18.051Z,99412.27
2022-11-29T21:36:56.286Z,99412.38
2022-11-29T21:39:32.835Z,99412.55
2022-11-29T21:42:02.088Z,99415.77
2022-11-29T21:44:31.064Z,99413.45
2022-11-29T21:47:00.092Z,99407.83
2022-11-29T21:49:28.770Z,99408.52
2022-11-29T21:52:01.562Z,99407.19
2022-11-29T21:54:31.003Z,99406.70
2022-11-29T21:57:02.031Z,99407.84
2022-11-29T21:59:30.792Z,99405.70
2022-11-29T22:02:00.384Z,99406.89
2022-11-29T22:04:29.540Z,99409.40
2022-11-29T22:06:58.104Z,99406.35
2022-11-29T22:09:27.449Z,99407.29
2022-11-29T22:11:56.753Z,99405.95
2022-11-29T22:14:25.339Z,99402.06
2022-11-29T22:16:59.130Z,99402.52
2022-11-29T22:19:30.839Z,99405.58
2022-11-29T22:22:06.644Z,99406.77
2022-11-29T22:24:37.120Z,99408.52
2022-11-29T22:27:06.002Z,99404.50
2022-11-29T22:29:34.880Z,99407.86
2022-11-29T22:32:04.177Z,99405.56
2022-11-29T22:34:32.799Z,99402.92
2022-11-29T22:37:01.548Z,99407.96
2022-11-29T22:39:30.618Z,99405.89
2022-11-29T22:41:59.180Z,99409.64
2022-11-29T22:44:27.799Z,99409.89
2022-11-29T22:46:56.808Z,99411.67
2022-11-29T22:49:25.495Z,99411.43
2022-11-29T22:51:54.953Z,99410.84
2022-11-29T22:54:23.910Z,99412.66
2022-11-29T22:56:52.785Z,99414.48
2022-11-29T22:59:21.603Z,99414.55
2022-11-29T23:01:50.575Z,99417.26
2022-11-29T23:04:19.912Z,99415.09
2022-11-29T23:06:48.523Z,99417.97
2022-11-29T23:09:22.691Z,99416.77
2022-11-29T23:11:56.651Z,99415.13
2022-11-29T23:14:25.791Z,99418.66
2022-11-29T23:16:54.599Z,99414.95
2022-11-29T23:19:23.272Z,99414.42
2022-11-29T23:21:52.319Z,99420.41
2022-11-29T23:24:20.929Z,99422.18
2022-11-29T23:26:50.440Z,99417.09
2022-11-29T23:29:20.248Z,99421.33
2022-11-29T23:31:50.295Z,99427.56
2022-11-29T23:34:20.252Z,99422.73
2022-11-29T23:36:52.970Z,99423.00
2022-11-29T23:39:22.366Z,99420.95
2022-11-29T23:41:51.335Z,99418.90
2022-11-29T23:44:19.956Z,99421.57
2022-11-29T23:46:48.693Z,99420.96
2022-11-29T23:49:17.515Z,99419.92
2022-11-29T23:51:46.136Z,99414.94
2022-11-29T23:54:14.748Z,99419.88
2022-11-29T23:56:43.814Z,99418.10
2022-11-29T23:59:12.439Z,99414.76
